sensor_id;sensor_type;location;lat;lon;timestamp;P1;durP1;ratioP1;P2;durP2;ratioP2
12912;SDS011;6524;51.368;11.984;2023-12-14T00:01:04;15.85;;;9.63;;
12912;SDS011;6524;51.368;11.984;2023-12-14T00:06:11;13.23;;;8.82;;
12912;SDS011;6524;51.368;11.984;2023-12-14T00:11:12;13.45;;;9.13;;
12912;SDS011;6524;51.368;11.984;2023-12-14T00:16:13;12.77;;;8.65;;
12912;SDS011;6524;51.368;11.984;2023-12-14T00:21:13;12.07;;;8.40;;
12912;SDS011;6524;51.368;11.984;2023-12-14T00:26:13;13.85;;;9.07;;
12912;SDS011;6524;51.368;11.984;2023-12-14T00:31:14;13.48;;;9.10;;
12912;SDS011;6524;51.368;11.984;2023-12-14T00:36:18;13.07;;;8.52;;
12912;SDS011;6524;51.368;11.984;2023-12-14T00:41:19;14.93;;;9.50;;
12912;SDS011;6524;51.368;11.984;2023-12-14T00:46:19;12.98;;;8.98;;
12912;SDS011;6524;51.368;11.984;2023-12-14T00:51:19;15.75;;;8.57;;
12912;SDS011;6524;51.368;11.984;2023-12-14T00:56:20;13.05;;;8.05;;
12912;SDS011;6524;51.368;11.984;2023-12-14T05:04:19;9.23;;;7.03;;
12912;SDS011;6524;51.368;11.984;2023-12-14T05:09:20;7.68;;;6.60;;
12912;SDS011;6524;51.368;11.984;2023-12-14T05:14:20;8.02;;;6.57;;
12912;SDS011;6524;51.368;11.984;2023-12-14T05:19:21;8.57;;;7.03;;
12912;SDS011;6524;51.368;11.984;2023-12-14T05:24:21;9.02;;;7.35;;
12912;SDS011;6524;51.368;11.984;2023-12-14T05:29:22;10.93;;;8.30;;
12912;SDS011;6524;51.368;11.984;2023-12-14T05:34:23;9.15;;;7.70;;
12912;SDS011;6524;51.368;11.984;2023-12-14T05:39:23;9.57;;;7.80;;
12912;SDS011;6524;51.368;11.984;2023-12-14T05:44:24;9.65;;;7.47;;
12912;SDS011;6524;51.368;11.984;2023-12-14T05:49:25;9.30;;;7.25;;
12912;SDS011;6524;51.368;11.984;2023-12-14T05:54:25;7.90;;;6.80;;
12912;SDS011;6524;51.368;11.984;2023-12-14T05:59:25;9.30;;;6.82;;
12912;SDS011;6524;51.368;11.984;2023-12-14T06:04:26;8.27;;;7.18;;
12912;SDS011;6524;51.368;11.984;2023-12-14T06:09:27;8.35;;;7.32;;
12912;SDS011;6524;51.368;11.984;2023-12-14T06:14:34;9.27;;;7.18;;
12912;SDS011;6524;51.368;11.984;2023-12-14T06:19:35;7.63;;;6.85;;
12912;SDS011;6524;51.368;11.984;2023-12-14T06:24:35;7.00;;;5.97;;
12912;SDS011;6524;51.368;11.984;2023-12-14T06:29:35;6.50;;;5.75;;
12912;SDS011;6524;51.368;11.984;2023-12-14T06:34:36;7.53;;;5.55;;
12912;SDS011;6524;51.368;11.984;2023-12-14T06:39:36;5.82;;;4.90;;
12912;SDS011;6524;51.368;11.984;2023-12-14T06:44:36;6.30;;;5.38;;
12912;SDS011;6524;51.368;11.984;2023-12-14T06:49:37;7.80;;;5.43;;
12912;SDS011;6524;51.368;11.984;2023-12-14T06:54:37;7.40;;;6.60;;
12912;SDS011;6524;51.368;11.984;2023-12-14T06:59:38;9.23;;;7.55;;
12912;SDS011;6524;51.368;11.984;2023-12-14T07:04:38;9.10;;;7.20;;
12912;SDS011;6524;51.368;11.984;2023-12-14T07:09:39;10.25;;;7.68;;
12912;SDS011;6524;51.368;11.984;2023-12-14T07:14:39;11.95;;;8.60;;
12912;SDS011;6524;51.368;11.984;2023-12-14T07:19:40;11.75;;;9.27;;
12912;SDS011;6524;51.368;11.984;2023-12-14T07:24:40;12.05;;;9.50;;
12912;SDS011;6524;51.368;11.984;2023-12-14T07:29:40;11.23;;;8.88;;
12912;SDS011;6524;51.368;11.984;2023-12-14T07:34:41;12.13;;;9.27;;
12912;SDS011;6524;51.368;11.984;2023-12-14T07:39:41;11.55;;;8.77;;
12912;SDS011;6524;51.368;11.984;2023-12-14T07:44:41;10.60;;;8.13;;
12912;SDS011;6524;51.368;11.984;2023-12-14T07:49:42;10.45;;;8.07;;
12912;SDS011;6524;51.368;11.984;2023-12-14T07:54:42;12.75;;;8.63;;
12912;SDS011;6524;51.368;11.984;2023-12-14T07:59:43;11.73;;;8.63;;
12912;SDS011;6524;51.368;11.984;2023-12-14T08:04:43;10.27;;;8.95;;
12912;SDS011;6524;51.368;11.984;2023-12-14T08:09:44;9.68;;;8.18;;
12912;SDS011;6524;51.368;11.984;2023-12-14T08:14:44;9.95;;;8.07;;
12912;SDS011;6524;51.368;11.984;2023-12-14T08:19:45;8.57;;;7.47;;
12912;SDS011;6524;51.368;11.984;2023-12-14T08:24:45;8.73;;;7.22;;
12912;SDS011;6524;51.368;11.984;2023-12-14T08:29:45;7.78;;;6.10;;
12912;SDS011;6524;51.368;11.984;2023-12-14T08:34:46;7.22;;;5.95;;
12912;SDS011;6524;51.368;11.984;2023-12-14T08:39:46;6.93;;;5.53;;
12912;SDS011;6524;51.368;11.984;2023-12-14T08:44:46;6.40;;;5.60;;
12912;SDS011;6524;51.368;11.984;2023-12-14T08:49:47;6.68;;;5.07;;
12912;SDS011;6524;51.368;11.984;2023-12-14T08:54:47;7.53;;;5.85;;
12912;SDS011;6524;51.368;11.984;2023-12-14T08:59:47;6.85;;;5.47;;
12912;SDS011;6524;51.368;11.984;2023-12-14T09:04:48;8.18;;;5.88;;
12912;SDS011;6524;51.368;11.984;2023-12-14T09:09:48;8.13;;;6.32;;
12912;SDS011;6524;51.368;11.984;2023-12-14T09:14:48;9.50;;;7.07;;
12912;SDS011;6524;51.368;11.984;2023-12-14T09:19:48;8.35;;;6.28;;
12912;SDS011;6524;51.368;11.984;2023-12-14T09:24:49;7.30;;;6.28;;
12912;SDS011;6524;51.368;11.984;2023-12-14T09:29:49;7.85;;;6.47;;
12912;SDS011;6524;51.368;11.984;2023-12-14T09:34:49;8.00;;;6.15;;
12912;SDS011;6524;51.368;11.984;2023-12-14T09:39:52;6.55;;;5.53;;
12912;SDS011;6524;51.368;11.984;2023-12-14T09:44:52;6.88;;;5.72;;
12912;SDS011;6524;51.368;11.984;2023-12-14T09:49:53;6.82;;;5.47;;
12912;SDS011;6524;51.368;11.984;2023-12-14T09:54:53;7.63;;;6.13;;
12912;SDS011;6524;51.368;11.984;2023-12-14T09:59:58;7.65;;;6.50;;
12912;SDS011;6524;51.368;11.984;2023-12-14T10:04:58;8.75;;;6.78;;
12912;SDS011;6524;51.368;11.984;2023-12-14T10:10:17;10.48;;;7.47;;
12912;SDS011;6524;51.368;11.984;2023-12-14T10:15:18;11.00;;;8.07;;
12912;SDS011;6524;51.368;11.984;2023-12-14T10:20:22;12.75;;;8.80;;
12912;SDS011;6524;51.368;11.984;2023-12-14T10:25:23;12.38;;;8.85;;
12912;SDS011;6524;51.368;11.984;2023-12-14T10:30:23;12.27;;;8.82;;
12912;SDS011;6524;51.368;11.984;2023-12-14T10:35:24;12.45;;;8.57;;
12912;SDS011;6524;51.368;11.984;2023-12-14T10:40:25;12.40;;;8.60;;
12912;SDS011;6524;51.368;11.984;2023-12-14T10:45:28;14.15;;;7.97;;
12912;SDS011;6524;51.368;11.984;2023-12-14T10:50:32;11.85;;;7.32;;
12912;SDS011;6524;51.368;11.984;2023-12-14T10:55:44;9.57;;;7.15;;
12912;SDS011;6524;51.368;11.984;2023-12-14T11:00:47;7.85;;;6.22;;
12912;SDS011;6524;51.368;11.984;2023-12-14T11:05:59;8.82;;;6.80;;
12912;SDS011;6524;51.368;11.984;2023-12-14T11:11:03;7.43;;;6.15;;
12912;SDS011;6524;51.368;11.984;2023-12-14T11:16:11;7.43;;;6.18;;
12912;SDS011;6524;51.368;11.984;2023-12-14T11:21:11;7.75;;;5.55;;
12912;SDS011;6524;51.368;11.984;2023-12-14T11:26:20;7.63;;;5.63;;
12912;SDS011;6524;51.368;11.984;2023-12-14T11:31:22;8.30;;;6.40;;
12912;SDS011;6524;51.368;11.984;2023-12-14T11:36:23;9.93;;;6.65;;
12912;SDS011;6524;51.368;11.984;2023-12-14T11:41:25;9.15;;;6.80;;
12912;SDS011;6524;51.368;11.984;2023-12-14T11:46:25;9.07;;;7.13;;
12912;SDS011;6524;51.368;11.984;2023-12-14T11:51:26;11.40;;;7.60;;
12912;SDS011;6524;51.368;11.984;2023-12-14T11:56:26;9.32;;;6.90;;
12912;SDS011;6524;51.368;11.984;2023-12-14T12:01:27;8.88;;;7.20;;
12912;SDS011;6524;51.368;11.984;2023-12-14T12:06:28;9.77;;;6.82;;
12912;SDS011;6524;51.368;11.984;2023-12-14T12:11:28;8.10;;;6.43;;
12912;SDS011;6524;51.368;11.984;2023-12-14T12:16:30;7.95;;;6.18;;
12912;SDS011;6524;51.368;11.984;2023-12-14T12:21:31;10.07;;;6.22;;
12912;SDS011;6524;51.368;11.984;2023-12-14T12:26:31;7.00;;;5.93;;
12912;SDS011;6524;51.368;11.984;2023-12-14T12:31:32;8.43;;;6.00;;
12912;SDS011;6524;51.368;11.984;2023-12-14T12:36:33;8.50;;;6.35;;
12912;SDS011;6524;51.368;11.984;2023-12-14T12:41:34;8.25;;;6.40;;
12912;SDS011;6524;51.368;11.984;2023-12-14T12:46:37;8.33;;;6.70;;
12912;SDS011;6524;51.368;11.984;2023-12-14T12:51:38;8.43;;;6.75;;
12912;SDS011;6524;51.368;11.984;2023-12-14T12:56:39;9.40;;;6.78;;
12912;SDS011;6524;51.368;11.984;2023-12-14T13:01:39;10.20;;;6.80;;
12912;SDS011;6524;51.368;11.984;2023-12-14T13:06:40;9.48;;;7.25;;
12912;SDS011;6524;51.368;11.984;2023-12-14T13:11:40;9.30;;;6.90;;
12912;SDS011;6524;51.368;11.984;2023-12-14T13:16:41;9.68;;;7.05;;
12912;SDS011;6524;51.368;11.984;2023-12-14T13:21:42;9.23;;;6.80;;
12912;SDS011;6524;51.368;11.984;2023-12-14T13:26:43;9.40;;;7.10;;
12912;SDS011;6524;51.368;11.984;2023-12-14T13:31:43;8.65;;;7.15;;
12912;SDS011;6524;51.368;11.984;2023-12-14T13:36:44;10.05;;;7.60;;
12912;SDS011;6524;51.368;11.984;2023-12-14T13:41:44;10.73;;;8.07;;
12912;SDS011;6524;51.368;11.984;2023-12-14T13:46:44;11.25;;;8.05;;
12912;SDS011;6524;51.368;11.984;2023-12-14T13:51:45;9.25;;;7.07;;
12912;SDS011;6524;51.368;11.984;2023-12-14T13:56:45;10.30;;;7.43;;
12912;SDS011;6524;51.368;11.984;2023-12-14T14:01:46;10.15;;;7.40;;
12912;SDS011;6524;51.368;11.984;2023-12-14T14:06:50;8.43;;;6.47;;
12912;SDS011;6524;51.368;11.984;2023-12-14T14:11:50;6.68;;;5.43;;
12912;SDS011;6524;51.368;11.984;2023-12-14T14:16:51;7.50;;;6.13;;
12912;SDS011;6524;51.368;11.984;2023-12-14T14:21:52;8.27;;;5.90;;
12912;SDS011;6524;51.368;11.984;2023-12-14T14:26:52;6.03;;;4.97;;
12912;SDS011;6524;51.368;11.984;2023-12-14T14:31:52;8.70;;;5.97;;
12912;SDS011;6524;51.368;11.984;2023-12-14T14:36:53;7.80;;;6.00;;
12912;SDS011;6524;51.368;11.984;2023-12-14T14:41:54;6.97;;;5.70;;
12912;SDS011;6524;51.368;11.984;2023-12-14T14:46:54;6.63;;;5.45;;
12912;SDS011;6524;51.368;11.984;2023-12-14T14:51:54;8.15;;;5.78;;
12912;SDS011;6524;51.368;11.984;2023-12-14T14:56:56;6.95;;;5.68;;
12912;SDS011;6524;51.368;11.984;2023-12-14T15:01:56;7.47;;;6.20;;
12912;SDS011;6524;51.368;11.984;2023-12-14T15:06:58;6.87;;;5.50;;
12912;SDS011;6524;51.368;11.984;2023-12-14T15:11:59;5.80;;;5.15;;
12912;SDS011;6524;51.368;11.984;2023-12-14T15:16:59;6.20;;;5.60;;
12912;SDS011;6524;51.368;11.984;2023-12-14T15:22:00;7.32;;;5.40;;
12912;SDS011;6524;51.368;11.984;2023-12-14T15:27:00;6.72;;;5.20;;
12912;SDS011;6524;51.368;11.984;2023-12-14T15:32:02;6.22;;;5.15;;
12912;SDS011;6524;51.368;11.984;2023-12-14T15:37:06;5.40;;;4.72;;
12912;SDS011;6524;51.368;11.984;2023-12-14T15:42:06;7.35;;;5.13;;
12912;SDS011;6524;51.368;11.984;2023-12-14T15:47:07;7.20;;;5.13;;
12912;SDS011;6524;51.368;11.984;2023-12-14T15:52:07;6.03;;;4.80;;
12912;SDS011;6524;51.368;11.984;2023-12-14T15:57:08;6.97;;;5.28;;
12912;SDS011;6524;51.368;11.984;2023-12-14T16:02:08;7.33;;;5.50;;
12912;SDS011;6524;51.368;11.984;2023-12-14T16:07:08;6.10;;;4.95;;
12912;SDS011;6524;51.368;11.984;2023-12-14T16:12:09;6.22;;;5.35;;
12912;SDS011;6524;51.368;11.984;2023-12-14T16:17:09;7.35;;;5.20;;
12912;SDS011;6524;51.368;11.984;2023-12-14T16:22:10;6.65;;;5.30;;
12912;SDS011;6524;51.368;11.984;2023-12-14T16:27:10;7.00;;;5.85;;
12912;SDS011;6524;51.368;11.984;2023-12-14T16:32:10;6.57;;;5.40;;
12912;SDS011;6524;51.368;11.984;2023-12-14T16:37:11;7.60;;;5.30;;
12912;SDS011;6524;51.368;11.984;2023-12-14T16:42:11;5.45;;;4.55;;
12912;SDS011;6524;51.368;11.984;2023-12-14T16:47:12;6.78;;;4.82;;
12912;SDS011;6524;51.368;11.984;2023-12-14T16:52:12;7.20;;;5.73;;
12912;SDS011;6524;51.368;11.984;2023-12-14T16:57:14;6.78;;;4.97;;
12912;SDS011;6524;51.368;11.984;2023-12-14T17:02:15;7.22;;;5.63;;
12912;SDS011;6524;51.368;11.984;2023-12-14T17:07:15;7.15;;;5.50;;
12912;SDS011;6524;51.368;11.984;2023-12-14T17:12:16;7.30;;;5.20;;
12912;SDS011;6524;51.368;11.984;2023-12-14T17:17:16;8.10;;;6.10;;
12912;SDS011;6524;51.368;11.984;2023-12-14T17:22:16;8.77;;;6.50;;
12912;SDS011;6524;51.368;11.984;2023-12-14T17:27:16;10.15;;;6.65;;
12912;SDS011;6524;51.368;11.984;2023-12-14T17:32:17;9.45;;;6.20;;
12912;SDS011;6524;51.368;11.984;2023-12-14T17:37:17;9.35;;;6.40;;
12912;SDS011;6524;51.368;11.984;2023-12-14T17:42:19;10.45;;;7.05;;
12912;SDS011;6524;51.368;11.984;2023-12-14T17:47:20;9.10;;;6.30;;
12912;SDS011;6524;51.368;11.984;2023-12-14T17:52:20;10.02;;;6.68;;
12912;SDS011;6524;51.368;11.984;2023-12-14T17:57:21;9.65;;;7.22;;
12912;SDS011;6524;51.368;11.984;2023-12-14T18:02:21;8.57;;;6.63;;
12912;SDS011;6524;51.368;11.984;2023-12-14T18:07:22;10.10;;;6.73;;
12912;SDS011;6524;51.368;11.984;2023-12-14T18:12:23;8.90;;;5.90;;
12912;SDS011;6524;51.368;11.984;2023-12-14T18:17:23;8.20;;;6.18;;
12912;SDS011;6524;51.368;11.984;2023-12-14T18:22:24;9.13;;;6.40;;
12912;SDS011;6524;51.368;11.984;2023-12-14T18:27:40;9.63;;;6.40;;
12912;SDS011;6524;51.368;11.984;2023-12-14T18:32:40;8.73;;;6.28;;
12912;SDS011;6524;51.368;11.984;2023-12-14T18:37:41;7.95;;;6.35;;
12912;SDS011;6524;51.368;11.984;2023-12-14T18:42:41;8.70;;;6.13;;
12912;SDS011;6524;51.368;11.984;2023-12-14T18:47:42;8.37;;;5.43;;
12912;SDS011;6524;51.368;11.984;2023-12-14T18:52:42;8.83;;;6.00;;
12912;SDS011;6524;51.368;11.984;2023-12-14T18:57:43;8.85;;;5.57;;
12912;SDS011;6524;51.368;11.984;2023-12-14T19:02:45;8.57;;;5.50;;
12912;SDS011;6524;51.368;11.984;2023-12-14T19:07:46;7.93;;;5.40;;
12912;SDS011;6524;51.368;11.984;2023-12-14T19:12:47;6.55;;;5.03;;
12912;SDS011;6524;51.368;11.984;2023-12-14T19:17:48;6.10;;;4.47;;
12912;SDS011;6524;51.368;11.984;2023-12-14T19:22:49;5.83;;;5.00;;
12912;SDS011;6524;51.368;11.984;2023-12-14T19:27:50;5.57;;;4.63;;
12912;SDS011;6524;51.368;11.984;2023-12-14T19:32:53;6.97;;;5.13;;
12912;SDS011;6524;51.368;11.984;2023-12-14T19:37:53;7.18;;;5.32;;
12912;SDS011;6524;51.368;11.984;2023-12-14T19:42:54;7.88;;;6.15;;
12912;SDS011;6524;51.368;11.984;2023-12-14T19:47:54;8.80;;;6.20;;
12912;SDS011;6524;51.368;11.984;2023-12-14T19:52:56;9.38;;;6.75;;
12912;SDS011;6524;51.368;11.984;2023-12-14T19:57:57;11.68;;;7.72;;
12912;SDS011;6524;51.368;11.984;2023-12-14T20:02:57;10.07;;;7.68;;
12912;SDS011;6524;51.368;11.984;2023-12-14T20:07:57;11.52;;;7.82;;
12912;SDS011;6524;51.368;11.984;2023-12-14T20:12:58;10.65;;;7.63;;
12912;SDS011;6524;51.368;11.984;2023-12-14T20:17:58;10.93;;;8.20;;
12912;SDS011;6524;51.368;11.984;2023-12-14T20:22:59;11.57;;;8.00;;
12912;SDS011;6524;51.368;11.984;2023-12-14T20:28:00;11.63;;;8.20;;
12912;SDS011;6524;51.368;11.984;2023-12-14T20:33:00;11.03;;;7.67;;
12912;SDS011;6524;51.368;11.984;2023-12-14T20:38:02;11.55;;;7.43;;
12912;SDS011;6524;51.368;11.984;2023-12-14T20:43:06;11.95;;;8.35;;
12912;SDS011;6524;51.368;11.984;2023-12-14T20:48:07;11.93;;;8.10;;
12912;SDS011;6524;51.368;11.984;2023-12-14T20:53:08;13.10;;;7.90;;
12912;SDS011;6524;51.368;11.984;2023-12-14T20:58:08;11.25;;;8.20;;
12912;SDS011;6524;51.368;11.984;2023-12-14T21:03:11;14.65;;;11.85;;
12912;SDS011;6524;51.368;11.984;2023-12-14T21:08:11;12.43;;;9.38;;
12912;SDS011;6524;51.368;11.984;2023-12-14T21:13:12;11.60;;;8.07;;
12912;SDS011;6524;51.368;11.984;2023-12-14T21:18:12;11.23;;;7.90;;
12912;SDS011;6524;51.368;11.984;2023-12-14T21:23:13;12.63;;;8.52;;
12912;SDS011;6524;51.368;11.984;2023-12-14T21:28:14;10.52;;;7.85;;
12912;SDS011;6524;51.368;11.984;2023-12-14T21:33:14;11.20;;;7.78;;
12912;SDS011;6524;51.368;11.984;2023-12-14T21:38:15;11.60;;;7.75;;
12912;SDS011;6524;51.368;11.984;2023-12-14T21:43:15;11.38;;;8.13;;
12912;SDS011;6524;51.368;11.984;2023-12-14T21:48:16;12.05;;;8.35;;
12912;SDS011;6524;51.368;11.984;2023-12-14T21:53:16;12.95;;;7.97;;
12912;SDS011;6524;51.368;11.984;2023-12-14T21:58:17;11.68;;;8.40;;
12912;SDS011;6524;51.368;11.984;2023-12-14T22:03:17;12.15;;;8.38;;
12912;SDS011;6524;51.368;11.984;2023-12-14T22:08:17;12.20;;;8.65;;
12912;SDS011;6524;51.368;11.984;2023-12-14T22:13:18;13.27;;;8.95;;
12912;SDS011;6524;51.368;11.984;2023-12-14T22:18:19;10.75;;;7.90;;
12912;SDS011;6524;51.368;11.984;2023-12-14T22:23:19;10.50;;;7.18;;
12912;SDS011;6524;51.368;11.984;2023-12-14T22:28:19;13.65;;;7.88;;
12912;SDS011;6524;51.368;11.984;2023-12-14T22:33:20;12.15;;;8.07;;
12912;SDS011;6524;51.368;11.984;2023-12-14T22:38:20;10.57;;;7.88;;
12912;SDS011;6524;51.368;11.984;2023-12-14T22:43:21;10.60;;;7.20;;
12912;SDS011;6524;51.368;11.984;2023-12-14T22:48:22;11.00;;;7.55;;
12912;SDS011;6524;51.368;11.984;2023-12-14T22:53:22;10.73;;;7.80;;
12912;SDS011;6524;51.368;11.984;2023-12-14T22:58:23;10.48;;;7.32;;
12912;SDS011;6524;51.368;11.984;2023-12-14T23:03:23;11.80;;;8.20;;
12912;SDS011;6524;51.368;11.984;2023-12-14T23:08:23;11.60;;;8.20;;
12912;SDS011;6524;51.368;11.984;2023-12-14T23:13:24;11.82;;;8.38;;
12912;SDS011;6524;51.368;11.984;2023-12-14T23:18:24;11.55;;;8.02;;
12912;SDS011;6524;51.368;11.984;2023-12-14T23:23:24;12.30;;;8.38;;
12912;SDS011;6524;51.368;11.984;2023-12-14T23:28:25;11.25;;;8.30;;
12912;SDS011;6524;51.368;11.984;2023-12-14T23:33:25;10.40;;;7.45;;
12912;SDS011;6524;51.368;11.984;2023-12-14T23:38:26;11.38;;;7.65;;
12912;SDS011;6524;51.368;11.984;2023-12-14T23:43:26;9.43;;;7.20;;
12912;SDS011;6524;51.368;11.984;2023-12-14T23:48:26;9.18;;;7.43;;
12912;SDS011;6524;51.368;11.984;2023-12-14T23:53:26;10.75;;;7.20;;
12912;SDS011;6524;51.368;11.984;2023-12-14T23:58:27;11.07;;;7.65;;
